sensor_id;sensor_type;location;lat;lon;timestamp;temperature;humidity
20139;DHT22;10230;51.502;10.800;2023-03-12T06:27:43;1.20;99.90
20139;DHT22;10230;51.502;10.800;2023-03-12T06:30:09;1.20;99.90
20139;DHT22;10230;51.502;10.800;2023-03-12T06:32:35;1.30;99.90
20139;DHT22;10230;51.502;10.800;2023-03-12T06:35:00;1.30;99.90
20139;DHT22;10230;51.502;10.800;2023-03-12T06:37:28;1.30;99.90
20139;DHT22;10230;51.502;10.800;2023-03-12T06:39:54;1.40;99.90
20139;DHT22;10230;51.502;10.800;2023-03-12T06:42:21;1.40;99.90
20139;DHT22;10230;51.502;10.800;2023-03-12T06:47:13;1.60;99.90
20139;DHT22;10230;51.502;10.800;2023-03-12T06:49:38;1.70;99.90
20139;DHT22;10230;51.502;10.800;2023-03-12T06:52:05;2.00;99.90
20139;DHT22;10230;51.502;10.800;2023-03-12T06:54:30;2.00;99.90
20139;DHT22;10230;51.502;10.800;2023-03-12T06:56:56;2.20;99.90
20139;DHT22;10230;51.502;10.800;2023-03-12T06:59:24;2.20;99.90
20139;DHT22;10230;51.502;10.800;2023-03-12T07:01:50;2.30;99.90
20139;DHT22;10230;51.502;10.800;2023-03-12T07:04:15;2.40;99.90
20139;DHT22;10230;51.502;10.800;2023-03-12T07:06:41;2.50;99.90
20139;DHT22;10230;51.502;10.800;2023-03-12T07:16:26;3.60;99.90
20139;DHT22;10230;51.502;10.800;2023-03-12T07:18:52;3.60;99.90
20139;DHT22;10230;51.502;10.800;2023-03-12T07:21:17;3.70;99.90
20139;DHT22;10230;51.502;10.800;2023-03-12T07:31:06;4.50;99.90
20139;DHT22;10230;51.502;10.800;2023-03-12T07:33:33;4.70;99.90
20139;DHT22;10230;51.502;10.800;2023-03-12T07:53:03;6.70;99.90
20139;DHT22;10230;51.502;10.800;2023-03-12T07:55:29;7.20;99.90
20139;DHT22;10230;51.502;10.800;2023-03-12T09:53:34;9.60;99.90
20139;DHT22;10230;51.502;10.800;2023-03-12T10:09:02;8.70;99.30
20139;DHT22;10230;51.502;10.800;2023-03-12T10:27:51;9.10;97.10
20139;DHT22;10230;51.502;10.800;2023-03-12T10:30:24;9.10;97.00
20139;DHT22;10230;51.502;10.800;2023-03-12T10:32:54;8.90;97.10
20139;DHT22;10230;51.502;10.800;2023-03-12T10:35:23;8.60;98.90
20139;DHT22;10230;51.502;10.800;2023-03-12T10:37:56;8.30;99.90
20139;DHT22;10230;51.502;10.800;2023-03-12T10:40:29;8.20;99.90
20139;DHT22;10230;51.502;10.800;2023-03-12T10:42:55;8.00;99.90
20139;DHT22;10230;51.502;10.800;2023-03-12T10:48:07;7.30;99.90
20139;DHT22;10230;51.502;10.800;2023-03-12T10:50:35;7.20;99.90
20139;DHT22;10230;51.502;10.800;2023-03-12T10:53:17;7.20;99.90
20139;DHT22;10230;51.502;10.800;2023-03-12T10:56:18;7.10;99.90
20139;DHT22;10230;51.502;10.800;2023-03-12T10:58:50;6.90;99.90
20139;DHT22;10230;51.502;10.800;2023-03-12T11:01:24;6.70;99.90
20139;DHT22;10230;51.502;10.800;2023-03-12T11:03:52;6.60;99.90
20139;DHT22;10230;51.502;10.800;2023-03-12T11:06:25;6.60;99.90
20139;DHT22;10230;51.502;10.800;2023-03-12T11:09:20;7.20;99.90
20139;DHT22;10230;51.502;10.800;2023-03-12T11:11:47;6.50;99.90
20139;DHT22;10230;51.502;10.800;2023-03-12T11:14:22;6.60;99.90
20139;DHT22;10230;51.502;10.800;2023-03-12T11:16:48;6.70;99.90
20139;DHT22;10230;51.502;10.800;2023-03-12T11:19:31;6.60;99.90
20139;DHT22;10230;51.502;10.800;2023-03-12T11:22:03;6.20;99.90
20139;DHT22;10230;51.502;10.800;2023-03-12T11:24:29;5.20;99.90
20139;DHT22;10230;51.502;10.800;2023-03-12T11:27:05;6.00;99.90
20139;DHT22;10230;51.502;10.800;2023-03-12T11:29:33;5.90;99.90
20139;DHT22;10230;51.502;10.800;2023-03-12T11:34:44;5.70;99.90
20139;DHT22;10230;51.502;10.800;2023-03-12T11:40:24;5.40;99.90
20139;DHT22;10230;51.502;10.800;2023-03-12T11:45:52;5.40;99.90
20139;DHT22;10230;51.502;10.800;2023-03-12T11:56:45;4.70;99.90
20139;DHT22;10230;51.502;10.800;2023-03-12T12:10:34;4.20;99.90
20139;DHT22;10230;51.502;10.800;2023-03-12T12:16:21;4.30;99.90
20139;DHT22;10230;51.502;10.800;2023-03-12T12:21:33;4.20;99.90
20139;DHT22;10230;51.502;10.800;2023-03-12T12:26:52;4.20;99.90
20139;DHT22;10230;51.502;10.800;2023-03-12T12:32:15;4.30;99.90
20139;DHT22;10230;51.502;10.800;2023-03-12T12:35:00;4.30;99.90
20139;DHT22;10230;51.502;10.800;2023-03-12T12:40:30;4.40;99.90
20139;DHT22;10230;51.502;10.800;2023-03-12T12:43:22;4.40;99.90
20139;DHT22;10230;51.502;10.800;2023-03-12T12:45:51;4.40;99.90
20139;DHT22;10230;51.502;10.800;2023-03-12T12:48:42;4.50;99.90
20139;DHT22;10230;51.502;10.800;2023-03-12T12:51:09;4.60;99.90
20139;DHT22;10230;51.502;10.800;2023-03-12T12:53:58;4.80;99.90
20139;DHT22;10230;51.502;10.800;2023-03-12T12:56:50;5.00;99.90
20139;DHT22;10230;51.502;10.800;2023-03-12T13:02:33;5.50;99.90
20139;DHT22;10230;51.502;10.800;2023-03-12T13:05:02;5.70;99.90
20139;DHT22;10230;51.502;10.800;2023-03-12T13:07:30;5.80;99.90
20139;DHT22;10230;51.502;10.800;2023-03-12T13:09:57;5.90;99.90
20139;DHT22;10230;51.502;10.800;2023-03-12T13:12:35;5.90;99.90
20139;DHT22;10230;51.502;10.800;2023-03-12T13:23:34;5.80;99.90
20139;DHT22;10230;51.502;10.800;2023-03-12T13:26:17;5.80;99.90
20139;DHT22;10230;51.502;10.800;2023-03-12T13:33:58;5.40;99.90
20139;DHT22;10230;51.502;10.800;2023-03-12T13:36:25;5.40;99.90
20139;DHT22;10230;51.502;10.800;2023-03-12T13:41:39;5.30;99.90
20139;DHT22;10230;51.502;10.800;2023-03-12T13:50:02;5.00;99.90
20139;DHT22;10230;51.502;10.800;2023-03-12T13:57:35;4.80;99.90
20139;DHT22;10230;51.502;10.800;2023-03-12T14:00:05;4.80;99.90
20139;DHT22;10230;51.502;10.800;2023-03-12T14:02:36;4.80;99.90
20139;DHT22;10230;51.502;10.800;2023-03-12T14:05:08;4.70;99.90
20139;DHT22;10230;51.502;10.800;2023-03-12T14:08:00;4.50;99.90
20139;DHT22;10230;51.502;10.800;2023-03-12T14:16:05;4.30;99.90
20139;DHT22;10230;51.502;10.800;2023-03-12T14:18:33;4.10;99.90
20139;DHT22;10230;51.502;10.800;2023-03-12T14:21:05;4.00;99.90
20139;DHT22;10230;51.502;10.800;2023-03-12T14:23:36;4.00;99.90
20139;DHT22;10230;51.502;10.800;2023-03-12T14:26:03;4.00;99.90
20139;DHT22;10230;51.502;10.800;2023-03-12T14:28:37;4.10;99.90
20139;DHT22;10230;51.502;10.800;2023-03-12T14:36:19;4.00;99.90
20139;DHT22;10230;51.502;10.800;2023-03-12T14:38:47;4.00;99.90
20139;DHT22;10230;51.502;10.800;2023-03-12T14:41:26;4.00;99.90
20139;DHT22;10230;51.502;10.800;2023-03-12T14:44:20;4.00;99.90
20139;DHT22;10230;51.502;10.800;2023-03-12T14:46:58;4.00;99.90
20139;DHT22;10230;51.502;10.800;2023-03-12T14:49:25;4.00;99.90
20139;DHT22;10230;51.502;10.800;2023-03-12T14:51:50;4.00;99.90
20139;DHT22;10230;51.502;10.800;2023-03-12T14:54:17;4.10;99.90
20139;DHT22;10230;51.502;10.800;2023-03-12T14:56:44;4.20;99.90
20139;DHT22;10230;51.502;10.800;2023-03-12T14:59:36;4.20;99.90
20139;DHT22;10230;51.502;10.800;2023-03-12T15:02:10;4.30;99.90
20139;DHT22;10230;51.502;10.800;2023-03-12T15:04:38;4.40;99.90
20139;DHT22;10230;51.502;10.800;2023-03-12T15:07:05;4.50;99.90
20139;DHT22;10230;51.502;10.800;2023-03-12T15:09:35;4.60;99.90
20139;DHT22;10230;51.502;10.800;2023-03-12T15:12:14;4.70;99.90
20139;DHT22;10230;51.502;10.800;2023-03-12T15:14:41;4.80;99.90
20139;DHT22;10230;51.502;10.800;2023-03-12T15:17:16;4.90;99.90
20139;DHT22;10230;51.502;10.800;2023-03-12T15:19:43;4.90;99.90
20139;DHT22;10230;51.502;10.800;2023-03-12T15:22:14;4.90;99.90
20139;DHT22;10230;51.502;10.800;2023-03-12T15:24:41;5.00;99.90
20139;DHT22;10230;51.502;10.800;2023-03-12T15:29:54;5.10;99.90
20139;DHT22;10230;51.502;10.800;2023-03-12T15:32:22;5.20;99.90
20139;DHT22;10230;51.502;10.800;2023-03-12T15:34:52;5.00;99.90
20139;DHT22;10230;51.502;10.800;2023-03-12T15:37:29;5.30;99.90
20139;DHT22;10230;51.502;10.800;2023-03-12T15:40:21;5.40;99.90
20139;DHT22;10230;51.502;10.800;2023-03-12T15:42:47;5.40;99.90
20139;DHT22;10230;51.502;10.800;2023-03-12T15:45:25;5.40;99.90
20139;DHT22;10230;51.502;10.800;2023-03-12T15:47:53;5.40;99.90
20139;DHT22;10230;51.502;10.800;2023-03-12T15:55:36;5.50;99.90
20139;DHT22;10230;51.502;10.800;2023-03-12T15:58:21;5.50;99.90
20139;DHT22;10230;51.502;10.800;2023-03-12T16:00:48;5.50;99.90
20139;DHT22;10230;51.502;10.800;2023-03-12T16:03:18;5.50;99.90
20139;DHT22;10230;51.502;10.800;2023-03-12T16:05:45;5.50;99.90
20139;DHT22;10230;51.502;10.800;2023-03-12T16:08:20;5.50;99.90
20139;DHT22;10230;51.502;10.800;2023-03-12T16:10:48;5.50;99.90
20139;DHT22;10230;51.502;10.800;2023-03-12T16:13:19;5.50;99.90
20139;DHT22;10230;51.502;10.800;2023-03-12T16:15:46;5.50;99.90
20139;DHT22;10230;51.502;10.800;2023-03-12T16:18:16;5.50;99.90
20139;DHT22;10230;51.502;10.800;2023-03-12T16:20:43;5.60;99.90
20139;DHT22;10230;51.502;10.800;2023-03-12T16:23:10;5.60;99.90
20139;DHT22;10230;51.502;10.800;2023-03-12T16:25:36;5.60;99.90
20139;DHT22;10230;51.502;10.800;2023-03-12T16:28:04;5.60;99.90
20139;DHT22;10230;51.502;10.800;2023-03-12T16:30:33;5.60;99.90
20139;DHT22;10230;51.502;10.800;2023-03-12T16:33:01;5.60;99.90
20139;DHT22;10230;51.502;10.800;2023-03-12T16:35:27;5.60;99.90
20139;DHT22;10230;51.502;10.800;2023-03-12T16:37:55;5.50;99.90
20139;DHT22;10230;51.502;10.800;2023-03-12T16:40:21;5.60;99.90
20139;DHT22;10230;51.502;10.800;2023-03-12T16:42:49;5.60;99.90
20139;DHT22;10230;51.502;10.800;2023-03-12T16:45:16;5.60;99.90
20139;DHT22;10230;51.502;10.800;2023-03-12T16:47:43;5.60;99.90
20139;DHT22;10230;51.502;10.800;2023-03-12T16:50:21;5.50;99.90
20139;DHT22;10230;51.502;10.800;2023-03-12T16:52:48;5.60;99.90
20139;DHT22;10230;51.502;10.800;2023-03-12T16:55:21;5.50;99.90
20139;DHT22;10230;51.502;10.800;2023-03-12T16:57:56;5.60;99.90
20139;DHT22;10230;51.502;10.800;2023-03-12T17:00:27;5.60;99.90
20139;DHT22;10230;51.502;10.800;2023-03-12T17:02:53;5.50;99.90
20139;DHT22;10230;51.502;10.800;2023-03-12T17:05:26;5.60;99.90
20139;DHT22;10230;51.502;10.800;2023-03-12T17:07:52;5.60;99.90
20139;DHT22;10230;51.502;10.800;2023-03-12T17:10:18;5.50;99.90
20139;DHT22;10230;51.502;10.800;2023-03-12T17:12:44;5.50;99.90
20139;DHT22;10230;51.502;10.800;2023-03-12T17:17:44;5.50;99.90
20139;DHT22;10230;51.502;10.800;2023-03-12T17:20:13;5.50;99.90
20139;DHT22;10230;51.502;10.800;2023-03-12T17:22:39;5.50;99.90
20139;DHT22;10230;51.502;10.800;2023-03-12T17:25:06;5.50;99.90
20139;DHT22;10230;51.502;10.800;2023-03-12T17:27:31;5.50;99.90
20139;DHT22;10230;51.502;10.800;2023-03-12T17:29:57;5.50;99.90
20139;DHT22;10230;51.502;10.800;2023-03-12T17:32:23;5.40;99.90
20139;DHT22;10230;51.502;10.800;2023-03-12T17:34:56;5.40;99.90
20139;DHT22;10230;51.502;10.800;2023-03-12T17:37:22;5.40;99.90
20139;DHT22;10230;51.502;10.800;2023-03-12T17:39:47;5.30;99.90
20139;DHT22;10230;51.502;10.800;2023-03-12T17:42:13;5.40;99.90
20139;DHT22;10230;51.502;10.800;2023-03-12T17:44:39;5.30;99.90
20139;DHT22;10230;51.502;10.800;2023-03-12T17:47:04;5.30;99.90
20139;DHT22;10230;51.502;10.800;2023-03-12T17:49:31;5.30;99.90
20139;DHT22;10230;51.502;10.800;2023-03-12T17:51:56;5.30;99.90
20139;DHT22;10230;51.502;10.800;2023-03-12T17:54:22;5.30;99.90
20139;DHT22;10230;51.502;10.800;2023-03-12T17:56:48;5.30;99.90
20139;DHT22;10230;51.502;10.800;2023-03-12T17:59:14;5.30;99.90
20139;DHT22;10230;51.502;10.800;2023-03-12T18:01:39;5.30;99.90
20139;DHT22;10230;51.502;10.800;2023-03-12T18:04:05;5.30;99.90
20139;DHT22;10230;51.502;10.800;2023-03-12T18:06:33;4.90;99.90
20139;DHT22;10230;51.502;10.800;2023-03-12T18:08:58;5.30;99.90
20139;DHT22;10230;51.502;10.800;2023-03-12T18:11:24;5.30;99.90
20139;DHT22;10230;51.502;10.800;2023-03-12T18:13:49;5.30;99.90
20139;DHT22;10230;51.502;10.800;2023-03-12T18:16:16;5.30;99.90
20139;DHT22;10230;51.502;10.800;2023-03-12T18:18:43;5.30;99.90
20139;DHT22;10230;51.502;10.800;2023-03-12T18:21:08;5.30;99.90
20139;DHT22;10230;51.502;10.800;2023-03-12T18:23:35;5.30;99.90
20139;DHT22;10230;51.502;10.800;2023-03-12T18:26:00;5.30;99.90
20139;DHT22;10230;51.502;10.800;2023-03-12T18:28:26;5.30;99.90
20139;DHT22;10230;51.502;10.800;2023-03-12T18:30:52;5.30;99.90
20139;DHT22;10230;51.502;10.800;2023-03-12T18:33:18;5.20;99.90
20139;DHT22;10230;51.502;10.800;2023-03-12T18:35:44;5.30;99.90
20139;DHT22;10230;51.502;10.800;2023-03-12T18:38:09;5.30;99.90
20139;DHT22;10230;51.502;10.800;2023-03-12T18:40:35;5.20;99.90
20139;DHT22;10230;51.502;10.800;2023-03-12T18:43:01;5.30;99.90
20139;DHT22;10230;51.502;10.800;2023-03-12T18:45:27;5.30;99.90
20139;DHT22;10230;51.502;10.800;2023-03-12T18:47:53;5.20;99.90
20139;DHT22;10230;51.502;10.800;2023-03-12T18:50:19;5.30;99.90
20139;DHT22;10230;51.502;10.800;2023-03-12T18:52:46;5.30;99.90
20139;DHT22;10230;51.502;10.800;2023-03-12T18:55:12;5.30;99.90
20139;DHT22;10230;51.502;10.800;2023-03-12T18:57:40;5.30;99.90
20139;DHT22;10230;51.502;10.800;2023-03-12T19:00:11;5.30;99.90
20139;DHT22;10230;51.502;10.800;2023-03-12T19:05:08;5.40;99.90
20139;DHT22;10230;51.502;10.800;2023-03-12T19:07:36;5.40;99.90
20139;DHT22;10230;51.502;10.800;2023-03-12T19:10:03;5.40;99.90
20139;DHT22;10230;51.502;10.800;2023-03-12T19:58:50;5.90;99.90
20139;DHT22;10230;51.502;10.800;2023-03-12T20:01:15;5.90;99.90
20139;DHT22;10230;51.502;10.800;2023-03-12T20:03:42;5.80;99.90
20139;DHT22;10230;51.502;10.800;2023-03-12T20:06:08;5.80;99.90
20139;DHT22;10230;51.502;10.800;2023-03-12T20:08:34;5.80;99.90
20139;DHT22;10230;51.502;10.800;2023-03-12T20:11:05;5.90;99.90
20139;DHT22;10230;51.502;10.800;2023-03-12T20:13:31;5.90;99.90
20139;DHT22;10230;51.502;10.800;2023-03-12T20:15:56;5.90;99.90
20139;DHT22;10230;51.502;10.800;2023-03-12T20:18:22;5.90;99.90
20139;DHT22;10230;51.502;10.800;2023-03-12T20:20:48;5.90;99.90
20139;DHT22;10230;51.502;10.800;2023-03-12T20:23:14;5.90;99.90
20139;DHT22;10230;51.502;10.800;2023-03-12T20:25:40;5.90;99.90
20139;DHT22;10230;51.502;10.800;2023-03-12T20:28:06;5.90;99.90
20139;DHT22;10230;51.502;10.800;2023-03-12T20:30:35;5.90;99.90
20139;DHT22;10230;51.502;10.800;2023-03-12T20:33:02;5.90;99.90
20139;DHT22;10230;51.502;10.800;2023-03-12T20:35:27;5.90;99.90
20139;DHT22;10230;51.502;10.800;2023-03-12T20:37:53;5.90;99.90
20139;DHT22;10230;51.502;10.800;2023-03-12T20:40:19;5.90;99.90
20139;DHT22;10230;51.502;10.800;2023-03-12T20:42:44;5.80;99.90
20139;DHT22;10230;51.502;10.800;2023-03-12T20:45:10;5.80;99.90
20139;DHT22;10230;51.502;10.800;2023-03-12T20:47:36;5.80;99.90
20139;DHT22;10230;51.502;10.800;2023-03-12T20:50:05;5.70;99.90
20139;DHT22;10230;51.502;10.800;2023-03-12T20:52:31;5.70;99.90
20139;DHT22;10230;51.502;10.800;2023-03-12T20:54:56;5.70;99.90
20139;DHT22;10230;51.502;10.800;2023-03-12T20:57:22;5.70;99.90
20139;DHT22;10230;51.502;10.800;2023-03-12T20:59:47;5.70;99.90
20139;DHT22;10230;51.502;10.800;2023-03-12T21:02:14;5.70;99.90
20139;DHT22;10230;51.502;10.800;2023-03-12T21:04:41;5.70;99.90
20139;DHT22;10230;51.502;10.800;2023-03-12T21:07:07;5.70;99.90
20139;DHT22;10230;51.502;10.800;2023-03-12T21:09:33;5.70;99.90
20139;DHT22;10230;51.502;10.800;2023-03-12T21:11:59;5.70;99.90
20139;DHT22;10230;51.502;10.800;2023-03-12T21:14:25;5.70;99.90
20139;DHT22;10230;51.502;10.800;2023-03-12T21:19:17;5.70;99.90
20139;DHT22;10230;51.502;10.800;2023-03-12T21:21:43;5.70;99.90
20139;DHT22;10230;51.502;10.800;2023-03-12T21:26:35;5.80;99.90
20139;DHT22;10230;51.502;10.800;2023-03-12T21:31:26;5.90;99.90
20139;DHT22;10230;51.502;10.800;2023-03-12T21:36:22;6.00;99.90
20139;DHT22;10230;51.502;10.800;2023-03-12T21:38:48;6.10;99.90
20139;DHT22;10230;51.502;10.800;2023-03-12T21:41:15;6.10;99.90
20139;DHT22;10230;51.502;10.800;2023-03-12T21:43:42;6.20;99.90
20139;DHT22;10230;51.502;10.800;2023-03-12T21:58:24;6.20;99.90
20139;DHT22;10230;51.502;10.800;2023-03-12T22:00:50;6.40;99.90
20139;DHT22;10230;51.502;10.800;2023-03-12T22:03:16;6.40;99.90
20139;DHT22;10230;51.502;10.800;2023-03-12T22:05:42;6.40;99.90
20139;DHT22;10230;51.502;10.800;2023-03-12T22:08:07;6.40;99.90
20139;DHT22;10230;51.502;10.800;2023-03-12T22:10:33;6.40;99.90
20139;DHT22;10230;51.502;10.800;2023-03-12T22:12:59;6.40;99.90
20139;DHT22;10230;51.502;10.800;2023-03-12T22:15:25;6.40;99.90
20139;DHT22;10230;51.502;10.800;2023-03-12T22:17:52;6.40;99.90
20139;DHT22;10230;51.502;10.800;2023-03-12T22:20:18;6.40;99.90
20139;DHT22;10230;51.502;10.800;2023-03-12T22:22:45;6.50;99.90
20139;DHT22;10230;51.502;10.800;2023-03-12T22:25:11;6.50;99.90
20139;DHT22;10230;51.502;10.800;2023-03-12T22:27:36;6.50;99.90
20139;DHT22;10230;51.502;10.800;2023-03-12T22:30:02;6.60;99.90
20139;DHT22;10230;51.502;10.800;2023-03-12T22:32:28;6.60;99.90
20139;DHT22;10230;51.502;10.800;2023-03-12T22:34:54;6.70;99.90
20139;DHT22;10230;51.502;10.800;2023-03-12T22:37:19;6.70;99.90
20139;DHT22;10230;51.502;10.800;2023-03-12T22:39:45;6.70;99.90
20139;DHT22;10230;51.502;10.800;2023-03-12T22:42:11;6.80;99.90
20139;DHT22;10230;51.502;10.800;2023-03-12T22:44:40;6.70;99.90
20139;DHT22;10230;51.502;10.800;2023-03-12T22:47:06;6.80;99.90
20139;DHT22;10230;51.502;10.800;2023-03-12T22:49:32;6.80;99.90
20139;DHT22;10230;51.502;10.800;2023-03-12T22:51:57;6.80;99.90
20139;DHT22;10230;51.502;10.800;2023-03-12T22:54:23;6.80;99.90
20139;DHT22;10230;51.502;10.800;2023-03-12T22:56:49;6.80;99.90
20139;DHT22;10230;51.502;10.800;2023-03-12T22:59:14;6.80;99.90
20139;DHT22;10230;51.502;10.800;2023-03-12T23:01:40;6.70;99.90
20139;DHT22;10230;51.502;10.800;2023-03-12T23:04:06;6.70;99.90
20139;DHT22;10230;51.502;10.800;2023-03-12T23:06:31;6.70;99.90
20139;DHT22;10230;51.502;10.800;2023-03-12T23:08:58;6.70;99.90
20139;DHT22;10230;51.502;10.800;2023-03-12T23:11:26;6.70;99.90
20139;DHT22;10230;51.502;10.800;2023-03-12T23:13:52;6.70;99.90
20139;DHT22;10230;51.502;10.800;2023-03-12T23:16:23;6.70;99.90
20139;DHT22;10230;51.502;10.800;2023-03-12T23:21:20;6.80;99.90
20139;DHT22;10230;51.502;10.800;2023-03-12T23:23:47;6.80;99.90
20139;DHT22;10230;51.502;10.800;2023-03-12T23:26:21;6.80;99.90
20139;DHT22;10230;51.502;10.800;2023-03-12T23:31:16;6.90;99.90
20139;DHT22;10230;51.502;10.800;2023-03-12T23:33:41;7.00;99.90
20139;DHT22;10230;51.502;10.800;2023-03-12T23:36:10;7.00;99.90
20139;DHT22;10230;51.502;10.800;2023-03-12T23:50:50;7.40;99.90
20139;DHT22;10230;51.502;10.800;2023-03-12T23:53:15;7.40;99.90
20139;DHT22;10230;51.502;10.800;2023-03-12T23:55:41;7.40;99.90
20139;DHT22;10230;51.502;10.800;2023-03-12T23:58:06;7.40;99.90
